Time;durP1;ratioP1;P1;durP2;ratioP2;P2;SDS_P1;SDS_P2;PMS_P1;PMS_P2;Temp;Humidity;BMP_temperature;BMP_pressure;BME280_temperature;BME280_humidity;BME280_pressure;Samples;Min_cycle;Max_cycle;Signal;HPM_P1;HPM_P2
2022/09/07 00:01:55;;;;;;;16.27;8.05;;;;;;;30.19;67.23;98211.13;4879238;29;20068;-70
2022/09/07 00:04:37;;;;;;;15.02;8.77;;;;;;;30.17;67.21;98216.22;4880697;29;20053;-70
2022/09/07 00:07:26;;;;;;;15.85;9.45;;;;;;;30.13;67.82;98216.13;4881916;29;20688;-70
2022/09/07 00:10:08;;;;;;;19.85;8.35;;;;;;;30.14;67.53;98220.50;4865805;29;20785;-75
2022/09/07 00:12:58;;;;;;;16.73;9.43;;;;;;;30.10;67.95;98222.38;4882869;29;20064;-70
2022/09/07 00:15:47;;;;;;;18.67;8.98;;;;;;;30.14;67.70;98217.75;4898266;29;20060;-70
2022/09/07 00:18:29;;;;;;;15.02;8.68;;;;;;;30.09;67.98;98229.06;4899920;29;20139;-70
2022/09/07 00:21:29;;;;;;;14.68;8.85;;;;;;;30.13;67.56;98229.16;4899782;29;20052;-71
2022/09/07 00:24:04;;;;;;;19.05;8.75;;;;;;;30.07;67.96;98228.63;4899561;29;20047;-71
2022/09/07 00:27:04;;;;;;;16.38;8.30;;;;;;;30.05;68.38;98234.50;4898910;29;20056;-69
2022/09/07 00:29:39;;;;;;;16.95;9.27;;;;;;;30.03;68.20;98233.25;4888933;29;20067;-71
2022/09/07 00:32:36;;;;;;;17.20;9.70;;;;;;;30.03;68.36;98236.03;4871914;29;20048;-70
2022/09/07 00:35:12;;;;;;;19.15;8.73;;;;;;;30.02;68.23;98242.75;4889139;29;20060;-70
2022/09/07 00:38:08;;;;;;;16.00;9.55;;;;;;;30.02;68.54;98240.75;4890625;29;20054;-71
2022/09/07 00:40:43;;;;;;;19.55;9.65;;;;;;;30.03;68.11;98241.56;4874702;29;20048;-70
2022/09/07 00:43:44;;;;;;;14.32;8.68;;;;;;;30.15;68.13;98258.09;4889953;29;20048;-70
2022/09/07 00:46:33;;;;;;;16.65;9.90;;;;;;;30.11;68.52;98251.66;4886636;29;20064;-70
2022/09/07 00:49:28;;;;;;;19.27;9.57;;;;;;;30.04;68.15;98257.81;4852698;29;20053;-70
2022/09/07 00:52:20;;;;;;;12.45;9.45;;;;;;;30.01;68.35;98266.03;4866993;29;20072;-71
2022/09/07 00:55:08;;;;;;;14.00;9.82;;;;;;;29.98;68.97;98263.94;4860600;29;20053;-70
2022/09/07 00:57:58;;;;;;;18.98;10.90;;;;;;;30.01;68.93;98269.59;4870464;29;20076;-70
2022/09/07 01:00:50;;;;;;;17.92;9.93;;;;;;;30.02;69.00;98271.22;4885130;29;20063;-70
2022/09/07 01:03:38;;;;;;;20.50;11.32;;;;;;;30.05;68.79;98276.00;4889870;29;20087;-70
2022/09/07 01:06:35;;;;;;;18.75;10.75;;;;;;;30.02;69.23;98287.00;4870316;29;20058;-70
2022/09/07 01:09:23;;;;;;;18.23;11.00;;;;;;;30.07;69.41;98297.81;4870126;29;20397;-69
2022/09/07 01:12:13;;;;;;;24.17;11.02;;;;;;;30.13;69.56;98290.84;4871033;29;20048;-69
2022/09/07 01:14:55;;;;;;;17.45;10.32;;;;;;;30.12;69.10;98294.78;4870694;29;20045;-70
2022/09/07 01:18:09;;;;;;;24.58;11.02;;;;;;;30.21;68.74;98300.13;4874848;29;20049;-70
2022/09/07 01:21:11;;;;;;;24.40;10.38;;;;;;;30.24;68.94;98300.25;4874894;29;20049;-70
2022/09/07 01:24:17;;;;;;;21.50;11.25;;;;;;;30.21;68.45;98300.97;4873638;29;20049;-71
2022/09/07 01:27:27;;;;;;;21.45;10.77;;;;;;;30.30;68.10;98314.63;4876837;29;20115;-71
2022/09/07 01:30:12;;;;;;;17.77;11.77;;;;;;;30.29;68.25;98318.56;4876324;29;20049;-72
2022/09/07 01:33:26;;;;;;;26.67;13.13;;;;;;;30.39;68.47;98317.28;4893409;29;20044;-71
2022/09/07 01:36:22;;;;;;;29.42;14.25;;;;;;;30.50;68.19;98323.09;4890230;29;20076;-72
2022/09/07 01:39:11;;;;;;;25.47;13.90;;;;;;;30.48;68.30;98326.22;4874439;29;20064;-73
2022/09/07 01:42:24;;;;;;;25.17;15.02;;;;;;;30.54;68.20;98332.28;4873910;29;20276;-71
2022/09/07 01:45:16;;;;;;;26.08;15.00;;;;;;;30.60;67.85;98333.63;4872643;29;20056;-70
2022/09/07 01:48:05;;;;;;;26.02;15.52;;;;;;;30.67;67.58;98330.22;4885116;29;20738;-71
2022/09/07 01:51:07;;;;;;;30.42;17.70;;;;;;;30.77;67.23;98332.47;4892678;29;20049;-70
2022/09/07 01:53:50;;;;;;;33.53;20.33;;;;;;;30.79;67.77;98341.22;4892518;29;20048;-71
2022/09/07 01:56:43;;;;;;;40.35;22.17;;;;;;;30.88;67.60;98336.31;4876101;29;20064;-71
2022/09/07 01:59:36;;;;;;;41.55;23.27;;;;;;;30.91;67.41;98338.38;4892709;29;20147;-71
2022/09/07 02:02:33;;;;;;;43.22;23.67;;;;;;;31.07;67.09;98332.03;4892839;29;20507;-70
2022/09/07 02:05:31;;;;;;;44.30;25.48;;;;;;;31.14;67.21;98340.50;4877375;29;20539;-71
2022/09/07 02:08:51;;;;;;;47.78;26.95;;;;;;;31.31;66.44;98345.66;4877713;29;20059;-71
2022/09/07 02:11:53;;;;;;;57.60;30.90;;;;;;;31.48;66.11;98346.47;4872820;29;20049;-70
2022/09/07 02:14:42;;;;;;;48.50;29.65;;;;;;;31.58;65.72;98355.00;4874173;29;20076;-71
2022/09/07 02:17:37;;;;;;;52.10;31.65;;;;;;;31.52;65.57;98350.91;4873651;29;20694;-71
2022/09/07 02:20:25;;;;;;;58.28;33.95;;;;;;;31.65;65.07;98356.34;4873561;29;20397;-70
2022/09/07 02:23:20;;;;;;;54.05;35.45;;;;;;;31.60;64.57;98360.19;4872449;29;20052;-70
2022/09/07 02:26:09;;;;;;;70.80;37.47;;;;;;;31.76;64.90;98363.72;4877728;29;20060;-71
2022/09/07 02:28:58;;;;;;;60.50;36.38;;;;;;;31.85;65.02;98365.47;4877553;29;20059;-72
2022/09/07 02:31:48;;;;;;;63.00;37.38;;;;;;;31.95;64.76;98356.59;4892600;29;20063;-71
2022/09/07 02:34:32;;;;;;;70.35;36.53;;;;;;;32.00;64.30;98364.59;4893211;29;20517;-70
2022/09/07 02:37:21;;;;;;;73.05;36.88;;;;;;;32.00;63.30;98356.28;4893337;29;20729;-74
2022/09/07 02:40:04;;;;;;;64.47;40.13;;;;;;;31.95;64.07;98356.59;4878375;29;20047;-73
2022/09/07 02:42:53;;;;;;;65.82;39.33;;;;;;;32.08;63.87;98365.59;4875742;29;20049;-71
2022/09/07 02:46:13;;;;;;;70.55;40.08;;;;;;;32.15;63.81;98363.75;4886435;29;20053;-73
2022/09/07 02:49:24;;;;;;;72.28;40.90;;;;;;;32.10;63.47;98366.00;4854118;29;20545;-71
2022/09/07 02:52:21;;;;;;;76.00;41.67;;;;;;;31.93;62.98;98372.78;4854781;29;20112;-71
2022/09/07 02:55:28;;;;;;;65.60;38.73;;;;;;;32.34;61.90;98373.25;4845729;29;20049;-71
2022/09/07 02:58:35;;;;;;;65.88;39.92;;;;;;;32.36;61.78;98376.44;4856542;29;20371;-73
2022/09/07 03:01:45;;;;;;;71.90;38.83;;;;;;;32.43;61.43;98379.38;4856695;29;20063;-71
2022/09/07 03:05:00;;;;;;;70.18;40.08;;;;;;;32.71;60.78;98386.63;4838602;29;20501;-72
2022/09/07 03:08:00;;;;;;;69.47;39.70;;;;;;;32.85;61.36;98380.53;4845353;29;20056;-71
2022/09/07 03:10:50;;;;;;;73.88;43.45;;;;;;;32.71;61.41;98381.06;4857750;29;20056;-71
2022/09/07 03:13:39;;;;;;;75.65;41.83;;;;;;;32.76;61.56;98389.91;4853075;29;20056;-72
2022/09/07 03:16:28;;;;;;;70.22;42.05;;;;;;;32.91;61.69;98390.16;4854346;29;21455;-72
2022/09/07 03:19:10;;;;;;;65.97;38.60;;;;;;;32.71;60.96;98392.19;4853840;29;20400;-71
2022/09/07 03:22:00;;;;;;;70.25;41.60;;;;;;;32.99;61.11;98389.09;4854847;29;20041;-72
2022/09/07 03:24:49;;;;;;;73.43;43.63;;;;;;;32.77;60.82;98394.31;4853919;29;20052;-72
2022/09/07 03:27:33;;;;;;;64.28;39.15;;;;;;;33.01;61.01;98392.31;4835836;29;20058;-72
2022/09/07 03:30:22;;;;;;;73.85;40.92;;;;;;;33.15;61.60;98388.97;4834479;29;20486;-72
2022/09/07 03:33:05;;;;;;;58.08;33.95;;;;;;;33.24;60.01;98389.53;4836229;29;20144;-71
2022/09/07 03:36:07;;;;;;;51.65;32.13;;;;;;;33.29;59.22;98397.56;4837188;29;20598;-72
2022/09/07 03:38:43;;;;;;;46.75;28.58;;;;;;;33.42;59.15;98398.16;4853802;29;20056;-72
2022/09/07 03:41:39;;;;;;;47.97;28.30;;;;;;;33.54;58.51;98399.94;4838718;29;20050;-71
2022/09/07 03:44:15;;;;;;;49.42;27.95;;;;;;;33.52;58.45;98402.28;4855075;29;20096;-73
2022/09/07 03:47:11;;;;;;;57.97;27.48;;;;;;;33.63;58.84;98397.72;4861369;29;20477;-73
2022/09/07 03:50:07;;;;;;;49.05;28.85;;;;;;;33.58;58.47;98406.34;4888366;29;20063;-72
2022/09/07 03:52:42;;;;;;;48.90;29.05;;;;;;;33.58;57.50;98409.13;4873888;29;20750;-70
2022/09/07 03:55:38;;;;;;;54.63;28.25;;;;;;;33.40;58.02;98408.88;4875254;29;20068;-72
2022/09/07 03:58:13;;;;;;;46.20;26.35;;;;;;;33.70;57.34;98420.03;4878163;29;20044;-73
2022/09/07 04:01:10;;;;;;;44.42;26.33;;;;;;;33.68;56.88;98413.25;4871443;29;20508;-71
2022/09/07 04:03:54;;;;;;;35.15;24.70;;;;;;;33.72;56.45;98417.69;4871063;29;20393;-72
2022/09/07 04:06:43;;;;;;;48.35;24.90;;;;;;;33.87;56.08;98417.91;4870831;29;20053;-72
2022/09/07 04:09:32;;;;;;;40.15;25.67;;;;;;;34.01;55.61;98409.72;4871763;29;20065;-71
2022/09/07 04:12:13;;;;;;;49.85;26.80;;;;;;;34.20;55.46;98419.94;4856362;29;20053;-72
2022/09/07 04:15:03;;;;;;;43.42;25.83;;;;;;;34.36;56.77;98416.13;4871794;29;20053;-72
2022/09/07 04:17:44;;;;;;;44.70;26.33;;;;;;;34.24;55.88;98431.94;4871870;29;20463;-72
2022/09/07 04:20:35;;;;;;;48.55;26.60;;;;;;;34.29;56.45;98422.44;4871897;29;20064;-71
2022/09/07 04:23:18;;;;;;;39.03;24.55;;;;;;;34.63;55.53;98425.22;4870514;29;20061;-73
2022/09/07 04:26:07;;;;;;;40.08;22.80;;;;;;;34.68;54.91;98422.09;4871780;29;20071;-73
2022/09/07 04:29:03;;;;;;;34.53;19.88;;;;;;;34.78;54.61;98431.72;4870600;29;20060;-73
2022/09/07 04:31:39;;;;;;;28.70;19.90;;;;;;;34.76;53.77;98434.94;4871444;29;20068;-70
2022/09/07 04:34:35;;;;;;;29.73;18.98;;;;;;;34.68;53.66;98431.28;4854461;29;20053;-72
2022/09/07 04:37:11;;;;;;;37.58;19.95;;;;;;;34.85;54.50;98432.63;4861922;29;20064;-73
2022/09/07 04:40:06;;;;;;;36.72;21.02;;;;;;;34.85;53.44;98438.22;4853687;29;20057;-74
2022/09/07 04:42:41;;;;;;;32.05;20.40;;;;;;;34.84;53.88;98431.03;4853002;29;20050;-72
2022/09/07 04:45:31;;;;;;;40.72;20.27;;;;;;;34.75;53.82;98441.69;4852907;29;20065;-72
2022/09/07 04:48:27;;;;;;;33.80;19.35;;;;;;;34.48;53.96;98433.41;4881001;29;20060;-73
2022/09/07 04:51:23;;;;;;;29.20;17.10;;;;;;;34.42;54.58;98434.94;4886112;29;20048;-72
2022/09/07 04:54:00;;;;;;;29.73;17.48;;;;;;;34.42;55.19;98436.91;4852923;29;20755;-72
2022/09/07 04:56:56;;;;;;;32.85;17.25;;;;;;;34.51;57.00;98435.44;4861523;29;20080;-73
2022/09/07 04:59:31;;;;;;;29.50;18.05;;;;;;;34.65;54.17;98429.19;4890128;29;20080;-71
2022/09/07 05:02:27;;;;;;;29.88;18.08;;;;;;;34.92;55.72;98437.47;4875201;29;20063;-73
2022/09/07 05:05:02;;;;;;;25.42;17.40;;;;;;;35.10;52.97;98429.25;4870324;29;20548;-73
2022/09/07 05:07:58;;;;;;;27.70;15.15;;;;;;;35.25;52.21;98433.00;4880989;29;20079;-72
2022/09/07 05:10:33;;;;;;;31.50;15.18;;;;;;;35.34;52.32;98435.47;4858504;29;20049;-74
2022/09/07 05:13:22;;;;;;;30.52;14.25;;;;;;;35.61;50.86;98434.06;4851965;29;20061;-72
2022/09/07 05:16:05;;;;;;;23.20;13.38;;;;;;;35.90;51.10;98428.66;4851439;29;20076;-73
2022/09/07 05:19:08;;;;;;;22.10;14.82;;;;;;;35.52;49.82;98441.16;4851877;29;20046;-73
2022/09/07 05:22:04;;;;;;;22.33;14.65;;;;;;;36.12;51.13;98432.38;4851598;29;20053;-73
2022/09/07 05:24:39;;;;;;;27.58;16.58;;;;;;;36.26;50.51;98434.44;4851826;29;20049;-72
2022/09/07 05:27:27;;;;;;;27.27;18.38;;;;;;;36.19;50.00;98429.66;4851724;29;20149;-71
2022/09/07 05:30:18;;;;;;;37.83;19.45;;;;;;;36.13;49.85;98422.00;4850910;29;20053;-71
2022/09/07 05:33:19;;;;;;;35.78;21.90;;;;;;;36.52;49.05;98426.97;4850963;29;20140;-70
2022/09/07 05:36:30;;;;;;;34.42;22.50;;;;;;;36.45;49.08;98422.13;4868224;29;20057;-73
2022/09/07 05:39:13;;;;;;;36.47;23.98;;;;;;;36.55;50.16;98417.75;4868738;29;20121;-71
2022/09/07 05:42:02;;;;;;;39.60;25.23;;;;;;;36.25;49.34;98419.69;4889829;29;20512;-71
2022/09/07 05:44:58;;;;;;;35.47;25.88;;;;;;;36.43;47.98;98416.94;4885797;29;20048;-71
2022/09/07 05:47:46;;;;;;;47.42;26.15;;;;;;;37.03;48.15;98415.47;4881849;29;20826;-70
2022/09/07 05:50:35;;;;;;;39.40;27.00;;;;;;;36.83;46.74;98406.66;4889921;29;20056;-71
2022/09/07 05:53:17;;;;;;;35.60;25.58;;;;;;;37.21;47.84;98406.31;4869346;29;20057;-70
2022/09/07 05:56:07;;;;;;;29.40;21.10;;;;;;;36.93;48.00;98405.06;4854527;29;20057;-71
2022/09/07 05:58:53;;;;;;;29.20;18.13;;;;;;;36.98;47.29;98404.69;4870772;29;20160;-70
2022/09/07 06:01:41;;;;;;;23.60;17.40;;;;;;;37.11;47.28;98402.28;4871992;29;20056;-72
2022/09/07 06:04:24;;;;;;;25.33;16.83;;;;;;;37.10;45.35;98405.47;4872230;29;20045;-72
2022/09/07 06:07:13;;;;;;;29.27;16.48;;;;;;;37.04;45.22;98411.47;4873328;29;20407;-72
2022/09/07 06:10:02;;;;;;;26.60;15.65;;;;;;;36.86;46.77;98404.25;4873727;29;20053;-72
2022/09/07 06:13:10;;;;;;;32.25;16.05;;;;;;;36.59;48.23;98399.00;4873527;29;20045;-71
2022/09/07 06:15:53;;;;;;;28.65;18.60;;;;;;;36.30;48.12;98400.94;4872551;29;20537;-71
2022/09/07 06:18:44;;;;;;;30.77;16.70;;;;;;;37.05;44.83;98395.47;4873761;29;20128;-71
2022/09/07 06:21:29;;;;;;;33.08;17.38;;;;;;;36.88;45.00;98388.69;4872650;29;20072;-71
2022/09/07 06:24:17;;;;;;;22.75;15.65;;;;;;;37.43;46.22;98387.47;4855265;29;20053;-71
2022/09/07 06:27:00;;;;;;;24.00;15.85;;;;;;;37.70;46.69;98385.06;4887009;29;20087;-71
2022/09/07 06:29:48;;;;;;;28.00;16.63;;;;;;;37.01;44.58;98386.28;4892529;29;20072;-71
2022/09/07 06:32:41;;;;;;;22.90;14.57;;;;;;;36.74;45.91;98380.28;4886046;29;20045;-72
2022/09/07 06:35:24;;;;;;;31.27;16.60;;;;;;;36.38;47.25;98378.22;4872056;29;20189;-73
2022/09/07 06:38:13;;;;;;;30.00;15.88;;;;;;;36.54;46.34;98374.25;4873745;29;20768;-71
2022/09/07 06:40:59;;;;;;;29.17;16.50;;;;;;;36.37;46.38;98373.81;4855756;29;20645;-73
2022/09/07 06:44:08;;;;;;;27.33;15.93;;;;;;;36.21;47.66;98373.34;4857145;29;20635;-71
2022/09/07 06:46:49;;;;;;;26.08;14.65;;;;;;;36.38;47.99;98366.22;4857243;29;20069;-72
2022/09/07 06:49:46;;;;;;;23.20;13.25;;;;;;;36.73;48.60;98367.53;4892048;29;20049;-74
2022/09/07 06:52:36;;;;;;;25.30;14.57;;;;;;;36.59;46.53;98365.47;4878071;29;20162;-73
2022/09/07 06:55:50;;;;;;;23.75;12.85;;;;;;;36.49;47.47;98363.44;4881171;29;20168;-72
2022/09/07 06:58:32;;;;;;;21.35;12.27;;;;;;;36.85;47.94;98358.72;4878243;29;20048;-72
2022/09/07 07:01:25;;;;;;;22.85;12.90;;;;;;;36.47;49.01;98360.25;4878769;29;20048;-71
2022/09/07 07:04:06;;;;;;;20.77;12.07;;;;;;;36.74;47.99;98355.91;4880808;29;20048;-72
2022/09/07 07:06:56;;;;;;;23.02;14.70;;;;;;;37.01;46.60;98349.91;4880827;29;20060;-71
2022/09/07 07:09:38;;;;;;;18.67;13.97;;;;;;;36.90;47.44;98349.94;4878801;29;20063;-71
2022/09/07 07:12:26;;;;;;;26.90;15.02;;;;;;;37.21;45.69;98348.34;4868205;29;20110;-72
2022/09/07 07:15:16;;;;;;;28.75;17.42;;;;;;;37.01;46.06;98341.53;4853067;29;20061;-70
2022/09/07 07:17:59;;;;;;;36.58;18.02;;;;;;;36.90;48.13;98338.75;4852701;29;20118;-71
2022/09/07 07:21:06;;;;;;;29.40;15.90;;;;;;;36.83;43.98;98342.34;4853739;29;20046;-71
2022/09/07 07:23:55;;;;;;;36.67;17.77;;;;;;;36.87;48.68;98333.16;4853211;29;20045;-72
2022/09/07 07:26:39;;;;;;;34.38;17.25;;;;;;;37.26;47.92;98323.94;4870976;29;20051;-71
2022/09/07 07:29:27;;;;;;;34.92;13.38;;;;;;;37.11;46.50;98326.75;4892320;29;20056;-71
2022/09/07 07:32:10;;;;;;;28.58;12.27;;;;;;;36.57;45.65;98331.50;4892454;29;20049;-70
2022/09/07 07:34:58;;;;;;;23.05;11.88;;;;;;;36.46;46.12;98325.94;4892469;29;20159;-71
2022/09/07 07:37:42;;;;;;;30.27;12.88;;;;;;;36.66;46.82;98329.16;4892548;29;20127;-70
2022/09/07 07:40:30;;;;;;;28.23;16.35;;;;;;;35.82;47.15;98326.50;4893547;29;20080;-69
2022/09/07 07:43:16;;;;;;;27.10;16.00;;;;;;;35.90;47.99;98316.97;4892891;29;20469;-71
2022/09/07 07:46:12;;;;;;;26.02;14.25;;;;;;;36.28;50.22;98325.88;4863643;29;20058;-70
2022/09/07 07:49:01;;;;;;;31.30;14.70;;;;;;;36.34;48.31;98321.50;4888803;29;20073;-70
2022/09/07 07:51:52;;;;;;;22.80;14.10;;;;;;;36.18;48.05;98310.69;4891964;29;20072;-70
2022/09/07 07:55:01;;;;;;;25.15;16.02;;;;;;;35.87;45.67;98301.00;4891565;29;20147;-70
2022/09/07 07:58:02;;;;;;;31.15;16.15;;;;;;;35.94;52.98;98301.00;4891231;29;20055;-70
2022/09/07 08:00:53;;;;;;;29.77;16.70;;;;;;;35.89;49.43;98297.84;4872993;29;20052;-70
2022/09/07 08:03:39;;;;;;;28.17;18.40;;;;;;;36.12;45.93;98289.13;4872902;29;20069;-70
2022/09/07 08:06:28;;;;;;;29.25;18.30;;;;;;;36.50;47.62;98290.38;4872628;29;20057;-71
2022/09/07 08:09:17;;;;;;;22.27;16.38;;;;;;;36.50;45.52;98292.38;4871673;29;20064;-71
2022/09/07 08:12:01;;;;;;;27.52;12.80;;;;;;;36.70;46.70;98290.81;4872959;29;20141;-71
2022/09/07 08:14:49;;;;;;;21.10;12.80;;;;;;;36.83;45.81;98288.41;4871803;29;20517;-71
2022/09/07 08:17:39;;;;;;;15.93;11.05;;;;;;;37.21;46.64;98261.59;4869157;29;20068;-71
2022/09/07 08:20:27;;;;;;;22.35;11.15;;;;;;;37.27;44.90;98264.78;4885065;29;20056;-72
2022/09/07 08:23:10;;;;;;;20.23;10.50;;;;;;;37.40;44.73;98259.56;4856545;29;20122;-70
2022/09/07 08:26:06;;;;;;;18.98;11.25;;;;;;;37.17;44.91;98254.44;4867010;29;20544;-72
2022/09/07 08:28:45;;;;;;;17.42;11.63;;;;;;;37.35;45.53;98251.56;4872653;29;20071;-72
2022/09/07 08:31:34;;;;;;;21.98;10.88;;;;;;;37.42;45.35;98251.53;4873005;29;20415;-71
2022/09/07 08:34:24;;;;;;;22.30;11.32;;;;;;;36.73;45.86;98248.09;4872244;29;20057;-71
2022/09/07 08:37:06;;;;;;;14.35;10.25;;;;;;;37.10;45.90;98237.63;4872948;29;20069;-73
2022/09/07 08:39:56;;;;;;;22.80;11.55;;;;;;;37.20;46.17;98229.25;4872963;29;20049;-72
2022/09/07 08:43:31;;;;;;;19.27;10.82;;;;;;;37.30;44.38;98221.19;4872415;29;20067;-70
2022/09/07 08:46:37;;;;;;;16.77;10.38;;;;;;;37.30;44.36;98210.81;4869787;29;20049;-71
2022/09/07 08:49:51;;;;;;;16.77;10.13;;;;;;;37.10;45.97;98227.22;4848131;29;20061;-72
2022/09/07 08:52:52;;;;;;;20.13;10.07;;;;;;;37.01;45.02;98215.66;4853181;29;20137;-71
2022/09/07 08:55:52;;;;;;;21.15;10.98;;;;;;;36.75;45.11;98214.94;4854018;29;20057;-71
2022/09/07 08:58:43;;;;;;;17.35;10.45;;;;;;;36.77;46.00;98218.13;4856359;29;20045;-71
2022/09/07 09:01:39;;;;;;;18.23;10.23;;;;;;;36.93;45.14;98206.47;4854989;29;20065;-71
2022/09/07 09:04:34;;;;;;;25.65;11.27;;;;;;;36.75;44.89;98214.94;4872293;29;20053;-71
2022/09/07 09:08:06;;;;;;;18.98;10.00;;;;;;;36.82;44.51;98214.91;4872134;29;20060;-71
2022/09/07 09:10:54;;;;;;;18.33;10.38;;;;;;;36.92;44.78;98212.47;4872662;29;20049;-72
2022/09/07 09:13:58;;;;;;;17.90;9.60;;;;;;;36.95;44.45;98212.47;4870745;29;20060;-72
2022/09/07 09:16:48;;;;;;;17.52;9.57;;;;;;;36.94;43.34;98204.50;4851322;29;20049;-70
2022/09/07 09:19:59;;;;;;;24.23;11.23;;;;;;;37.17;44.43;98212.47;4872101;29;20076;-72
2022/09/07 09:22:52;;;;;;;22.88;10.32;;;;;;;36.59;44.98;98200.53;4858307;29;20113;-72
2022/09/07 09:25:35;;;;;;;;;;;;;;;36.99;44.28;98196.50;4871759;29;20065;-70
2022/09/07 09:28:34;;;;;;;24.73;9.95;;;;;;;36.87;44.88;98196.91;4872321;29;19938;-71
2022/09/07 09:31:34;;;;;;;21.30;9.57;;;;;;;36.60;45.39;98197.34;4872153;29;20057;-70
2022/09/07 09:34:26;;;;;;;14.07;9.95;;;;;;;36.49;46.73;98196.53;4857354;29;20057;-70
2022/09/07 09:37:33;;;;;;;19.17;10.05;;;;;;;36.41;45.13;98176.19;4873906;29;20044;-70
2022/09/07 09:40:32;;;;;;;15.48;9.52;;;;;;;36.58;46.04;98187.75;4875403;29;20052;-70
2022/09/07 09:43:33;;;;;;;17.55;11.15;;;;;;;36.42;46.29;98180.59;4875527;29;20088;-71
2022/09/07 09:46:26;;;;;;;16.75;9.60;;;;;;;36.21;46.25;98178.59;4874426;29;20045;-69
2022/09/07 09:49:32;;;;;;;19.65;10.40;;;;;;;35.87;47.68;98175.38;4855770;29;20445;-71
2022/09/07 09:52:27;;;;;;;17.10;10.60;;;;;;;35.53;48.24;98169.28;4856190;29;20072;-70
2022/09/07 09:55:36;;;;;;;;;;;;;;;35.41;46.96;98168.44;4856410;29;20076;-70
2022/09/07 09:58:31;;;;;;;14.77;9.75;;;;;;;35.27;48.40;98169.22;4857825;29;20311;-70
2022/09/07 10:01:40;;;;;;;19.45;9.77;;;;;;;35.16;49.05;98173.09;4857319;29;20053;-71
2022/09/07 10:04:56;;;;;;;23.52;11.10;;;;;;;35.22;49.19;98166.78;4855445;29;20053;-70
2022/09/07 10:07:51;;;;;;;22.15;10.98;;;;;;;35.29;47.76;98160.41;4867506;29;20053;-71
2022/09/07 10:11:08;;;;;;;15.75;9.68;;;;;;;35.44;47.60;98156.47;4862896;29;20055;-71
2022/09/07 10:13:56;;;;;;;18.08;11.00;;;;;;;35.42;47.37;98156.06;4856804;29;20054;-72
2022/09/07 10:16:52;;;;;;;23.25;12.43;;;;;;;35.39;46.90;98153.28;4856629;29;20510;-69
2022/09/07 10:19:37;;;;;;;25.90;12.57;;;;;;;35.35;48.60;98158.03;4856074;29;20562;-71
2022/09/07 10:22:35;;;;;;;24.00;13.20;;;;;;;35.32;49.71;98156.06;4855364;29;20049;-73
2022/09/07 10:25:46;;;;;;;22.25;12.10;;;;;;;35.26;50.83;98152.84;4861848;29;20151;-71
2022/09/07 10:28:38;;;;;;;22.83;12.15;;;;;;;35.18;50.42;98157.59;4893733;29;20135;-72
2022/09/07 10:32:26;;;;;;;24.20;12.32;;;;;;;35.03;52.10;98153.13;4890510;29;20112;-69
2022/09/07 10:35:56;;;;;;;24.45;12.57;;;;;;;35.17;51.91;98152.38;4892278;29;20048;-71
2022/09/07 10:38:57;;;;;;;21.95;13.73;;;;;;;35.17;53.10;98142.03;4876270;29;20048;-71
2022/09/07 10:42:03;;;;;;;26.00;13.50;;;;;;;35.20;53.03;98146.84;4893701;29;20066;-71
2022/09/07 10:45:11;;;;;;;25.77;13.90;;;;;;;35.31;53.06;98151.66;4879160;29;20056;-70
2022/09/07 10:48:18;;;;;;;22.40;13.10;;;;;;;35.38;52.42;98146.13;4874621;29;20040;-70
2022/09/07 10:51:40;;;;;;;17.80;12.38;;;;;;;35.39;52.74;98147.69;4892214;29;20500;-70
2022/09/07 10:54:35;;;;;;;;;;;;;;;35.21;53.13;98144.84;4891434;29;20049;-70
2022/09/07 10:57:52;;;;;;;21.67;11.98;;;;;;;35.30;53.13;98153.66;4876292;29;19975;-71
2022/09/07 11:01:14;;;;;;;21.55;13.38;;;;;;;35.52;52.66;98145.34;4855697;29;20114;-71
2022/09/07 11:04:46;;;;;;;17.20;11.85;;;;;;;35.48;52.31;98153.69;4881987;29;20156;-70
2022/09/07 11:08:05;;;;;;;27.98;11.73;;;;;;;35.41;52.12;98153.72;4874198;29;20076;-70
2022/09/07 11:11:07;;;;;;;18.08;11.43;;;;;;;35.74;51.78;98154.59;4876814;29;20532;-70
2022/09/07 11:14:10;;;;;;;23.20;11.70;;;;;;;35.54;52.47;98152.16;4873900;29;20120;-71
2022/09/07 11:17:19;;;;;;;18.90;11.77;;;;;;;35.57;52.42;98153.34;4873615;29;20063;-71
2022/09/07 11:20:17;;;;;;;14.25;11.23;;;;;;;35.62;51.61;98150.97;4840593;29;20160;-71
2022/09/07 11:23:19;;;;;;;17.35;12.10;;;;;;;35.51;51.98;98150.13;4855555;29;20125;-70
2022/09/07 11:26:37;;;;;;;16.20;11.07;;;;;;;35.41;52.33;98154.50;4872878;29;20481;-70
2022/09/07 11:30:08;;;;;;;16.67;11.18;;;;;;;35.35;53.35;98152.47;4871472;29;20048;-71
2022/09/07 11:32:58;;;;;;;22.23;11.20;;;;;;;35.24;53.36;98142.09;4892660;29;20137;-71
2022/09/07 11:36:06;;;;;;;18.45;11.50;;;;;;;35.04;53.36;98137.97;4891731;29;20060;-71
2022/09/07 11:39:27;;;;;;;18.83;10.35;;;;;;;35.16;53.56;98143.22;4892275;29;20560;-71
2022/09/07 11:42:42;;;;;;;26.00;10.65;;;;;;;35.24;52.42;98153.25;4875080;29;20048;-70
2022/09/07 11:45:48;;;;;;;23.35;10.55;;;;;;;34.90;53.75;98145.09;4891698;29;20048;-71
2022/09/07 11:48:48;;;;;;;13.77;10.93;;;;;;;34.97;53.17;98140.72;4875436;29;20377;-71
2022/09/07 11:51:38;;;;;;;20.90;10.30;;;;;;;34.98;50.36;98142.34;4892073;29;20477;-71
2022/09/07 11:54:52;;;;;;;23.10;12.63;;;;;;;34.52;53.46;98144.44;4876535;29;20569;-71
2022/09/07 11:58:34;;;;;;;19.85;10.93;;;;;;;34.95;55.19;98137.53;4888916;29;20072;-71
2022/09/07 12:01:28;;;;;;;24.38;12.60;;;;;;;34.80;55.14;98140.28;4891545;29;20093;-71
2022/09/07 12:04:49;;;;;;;22.27;11.77;;;;;;;34.29;55.15;98138.31;4877629;29;20060;-69
2022/09/07 12:07:48;;;;;;;28.15;13.55;;;;;;;34.58;53.10;98138.50;4882982;29;20048;-71
2022/09/07 12:10:45;;;;;;;23.80;12.50;;;;;;;34.49;54.83;98136.88;4873265;29;20060;-71
2022/09/07 12:13:45;;;;;;;20.08;12.95;;;;;;;34.64;55.57;98132.19;4872410;29;20073;-71
2022/09/07 12:17:00;;;;;;;20.67;11.40;;;;;;;34.37;54.89;98134.41;4859632;29;20365;-71
2022/09/07 12:20:13;;;;;;;22.33;11.43;;;;;;;34.66;54.45;98129.00;4871756;29;20501;-71
2022/09/07 12:23:26;;;;;;;;;;;;;;;34.66;55.88;98129.81;4872403;29;20473;-71
2022/09/07 12:26:34;;;;;;;22.27;13.32;;;;;;;34.13;55.48;98138.56;4882028;29;20375;-69
2022/09/07 12:29:30;;;;;;;18.35;11.90;;;;;;;34.20;55.64;98138.63;4874999;29;20060;-70
2022/09/07 12:32:34;;;;;;;26.23;13.02;;;;;;;34.32;56.73;98143.13;4875046;29;20135;-70
2022/09/07 12:35:47;;;;;;;25.17;11.15;;;;;;;34.35;55.57;98135.97;4891375;29;20480;-70
2022/09/07 12:38:32;;;;;;;21.70;12.05;;;;;;;34.44;54.89;98130.88;4879582;29;20105;-71
2022/09/07 12:41:31;;;;;;;26.92;12.70;;;;;;;34.36;55.06;98132.00;4855054;29;20049;-71
2022/09/07 12:44:26;;;;;;;25.85;12.07;;;;;;;34.26;54.66;98130.72;4854622;29;20121;-70
2022/09/07 12:47:17;;;;;;;18.35;12.23;;;;;;;34.25;55.16;98127.16;4862612;29;20108;-70
2022/09/07 12:50:49;;;;;;;31.73;12.48;;;;;;;34.14;55.47;98132.59;4891004;29;20147;-70
2022/09/07 12:53:38;;;;;;;31.95;15.63;;;;;;;34.13;56.01;98135.78;4543532;29;9999958;-70
2022/09/07 12:56:59;;;;;;;29.85;13.85;;;;;;;34.13;55.22;98133.00;4869973;29;20056;-71
2022/09/07 13:00:27;;;;;;;27.30;14.57;;;;;;;34.08;55.46;98138.94;4861816;29;20046;-70
2022/09/07 13:03:43;;;;;;;24.20;16.27;;;;;;;34.03;56.36;98137.31;4870413;29;20048;-70
2022/09/07 13:07:03;;;;;;;34.95;17.33;;;;;;;33.99;56.51;98135.66;4883374;29;20053;-69
2022/09/07 13:09:57;;;;;;;27.35;17.23;;;;;;;33.91;56.47;98141.16;4867687;29;20067;-70
2022/09/07 13:12:51;;;;;;;37.28;16.98;;;;;;;33.68;57.28;98134.97;4862901;29;20057;-68
2022/09/07 13:16:13;;;;;;;28.77;18.05;;;;;;;33.82;56.77;98139.88;4868424;29;20052;-69
2022/09/07 13:19:09;;;;;;;33.30;15.88;;;;;;;33.76;56.62;98135.84;4884955;29;20055;-68
2022/09/07 13:21:58;;;;;;;23.35;13.75;;;;;;;33.81;56.33;98136.31;4884009;29;20053;-68
2022/09/07 13:25:03;;;;;;;25.15;16.00;;;;;;;33.82;56.23;98137.09;4862353;29;20102;-69
2022/09/07 13:27:59;;;;;;;26.35;15.60;;;;;;;33.75;55.78;98140.63;4879854;29;20048;-68
2022/09/07 13:31:16;;;;;;;30.50;15.32;;;;;;;33.67;56.72;98145.31;4854006;29;20521;-71